Time;durP1;ratioP1;P1;durP2;ratioP2;P2;SDS_P1;SDS_P2;PMS_P1;PMS_P2;Temp;Humidity;BMP_temperature;BMP_pressure;BME280_temperature;BME280_humidity;BME280_pressure;Samples;Min_cycle;Max_cycle;Signal;HPM_P1;HPM_P2
2022/04/05 00:01:48;;;;;;;17.70;13.85;;;6.80;74.40;;;;;;5053986;28;20242;-68
2022/04/05 00:04:16;;;;;;;15.85;12.05;;;6.80;74.40;;;;;;5057571;28;20196;-68
2022/04/05 00:06:44;;;;;;;16.25;13.32;;;6.90;74.20;;;;;;5057392;28;20219;-68
2022/04/05 00:09:12;;;;;;;15.45;12.27;;;6.90;74.30;;;;;;5056409;28;20208;-68
2022/04/05 00:11:40;;;;;;;15.63;12.68;;;6.90;74.30;;;;;;5058823;28;20218;-68
2022/04/05 00:14:09;;;;;;;18.27;12.93;;;6.90;74.50;;;;;;5063112;28;20218;-68
2022/04/05 00:16:37;;;;;;;19.98;13.15;;;6.90;74.40;;;;;;5064307;28;20238;-68
2022/04/05 00:19:06;;;;;;;19.25;13.25;;;6.90;74.40;;;;;;5058076;28;20223;-68
2022/04/05 00:21:34;;;;;;;17.00;12.77;;;6.90;74.70;;;;;;5062690;28;20347;-68
2022/04/05 00:24:02;;;;;;;17.70;13.23;;;6.80;75.00;;;;;;5054062;28;20200;-68
2022/04/05 00:26:30;;;;;;;16.45;13.05;;;6.80;74.90;;;;;;5054637;28;20621;-68
2022/04/05 00:28:58;;;;;;;19.40;14.52;;;6.80;75.10;;;;;;5054836;28;20848;-68
2022/04/05 00:31:26;;;;;;;15.85;12.68;;;6.80;75.40;;;;;;5052117;28;20613;-68
2022/04/05 00:33:54;;;;;;;16.55;12.90;;;6.80;75.00;;;;;;5033837;28;20211;-68
2022/04/05 00:36:24;;;;;;;23.63;14.65;;;6.80;75.20;;;;;;5032510;28;20565;-67
2022/04/05 00:38:52;;;;;;;18.35;14.25;;;6.80;75.70;;;;;;5057193;28;20298;-67
2022/04/05 00:41:20;;;;;;;18.63;14.52;;;6.80;75.60;;;;;;5057984;28;20200;-69
2022/04/05 00:43:48;;;;;;;17.30;14.02;;;6.70;75.80;;;;;;5060273;28;20197;-68
2022/04/05 00:46:22;;;;;;;17.73;14.25;;;6.70;76.30;;;;;;5059074;28;20235;-68
2022/04/05 00:48:52;;;;;;;19.25;14.52;;;6.70;76.10;;;;;;5054311;28;20220;-68
2022/04/05 00:51:22;;;;;;;17.95;14.07;;;6.70;75.70;;;;;;5054839;28;20220;-68
2022/04/05 00:53:53;;;;;;;16.80;14.20;;;6.70;76.10;;;;;;5053838;28;20204;-68
2022/04/05 00:56:22;;;;;;;16.70;13.45;;;6.70;76.10;;;;;;5052801;28;20276;-69
2022/04/05 00:58:53;;;;;;;18.30;13.68;;;6.60;76.50;;;;;;5058927;28;20227;-69
2022/04/05 01:01:22;;;;;;;18.35;14.23;;;6.70;76.10;;;;;;5058363;28;20216;-70
2022/04/05 01:03:53;;;;;;;17.52;13.70;;;6.70;76.10;;;;;;5056009;28;20292;-68
2022/04/05 01:06:26;;;;;;;17.48;13.05;;;6.60;76.60;;;;;;5056062;28;20226;-68
2022/04/05 01:08:56;;;;;;;18.85;13.25;;;6.60;77.10;;;;;;5037858;28;20233;-70
2022/04/05 01:11:24;;;;;;;18.45;14.02;;;6.60;76.70;;;;;;5056012;28;20207;-69
2022/04/05 01:13:53;;;;;;;16.77;13.93;;;6.60;76.90;;;;;;5058244;28;20208;-68
2022/04/05 01:16:22;;;;;;;17.73;13.45;;;6.60;77.50;;;;;;5059526;28;20231;-68
2022/04/05 01:18:50;;;;;;;17.70;14.38;;;6.60;76.90;;;;;;5059180;28;20299;-68
2022/04/05 01:21:18;;;;;;;20.50;14.82;;;6.60;77.50;;;;;;5056322;28;20212;-68
2022/04/05 01:24:06;;;;;;;17.10;12.52;;;6.60;77.00;;;;;;5053228;28;20205;-68
2022/04/05 01:26:39;;;;;;;17.48;13.77;;;6.60;77.10;;;;;;5055839;28;20238;-68
2022/04/05 01:29:07;;;;;;;15.45;12.60;;;6.60;77.20;;;;;;5055740;28;20220;-70
2022/04/05 01:31:38;;;;;;;18.83;13.80;;;6.60;77.10;;;;;;5057087;28;20255;-71
2022/04/05 01:34:06;;;;;;;17.88;11.85;;;6.50;77.50;;;;;;5056791;28;20196;-68
2022/04/05 01:36:39;;;;;;;16.77;13.50;;;6.60;77.30;;;;;;5058988;28;20211;-70
2022/04/05 01:39:09;;;;;;;21.35;14.05;;;6.60;77.20;;;;;;5054698;28;20762;-68
2022/04/05 01:41:37;;;;;;;19.65;14.00;;;6.50;78.00;;;;;;5052943;28;20272;-68
2022/04/05 01:44:06;;;;;;;18.85;13.38;;;6.50;77.70;;;;;;5058500;28;20218;-68
2022/04/05 01:46:34;;;;;;;19.30;13.90;;;6.50;78.10;;;;;;5053119;28;20228;-69
2022/04/05 01:49:06;;;;;;;17.10;13.55;;;6.50;77.80;;;;;;5057167;28;20228;-69
2022/04/05 01:51:36;;;;;;;17.58;14.30;;;6.50;78.40;;;;;;5059287;28;20204;-70
2022/04/05 01:54:07;;;;;;;18.05;13.32;;;6.50;78.80;;;;;;5056350;28;20208;-69
2022/04/05 01:56:42;;;;;;;17.23;14.13;;;6.40;78.70;;;;;;5056209;28;20741;-70
2022/04/05 01:59:11;;;;;;;16.20;13.43;;;6.40;78.40;;;;;;5054808;28;20207;-69
2022/04/05 02:01:39;;;;;;;21.63;14.32;;;6.40;78.40;;;;;;5057266;28;20221;-69
2022/04/05 02:04:08;;;;;;;18.15;13.43;;;6.50;78.00;;;;;;5056407;28;20203;-70
2022/04/05 02:06:39;;;;;;;22.52;14.27;;;6.50;78.30;;;;;;5051998;28;20619;-70
2022/04/05 02:09:07;;;;;;;17.02;13.05;;;6.50;78.50;;;;;;5056659;28;20607;-70
2022/04/05 02:11:38;;;;;;;18.85;13.85;;;6.40;78.70;;;;;;5059147;28;20204;-69
2022/04/05 02:14:17;;;;;;;20.33;13.73;;;6.50;78.60;;;;;;5038938;28;20211;-69
2022/04/05 02:16:45;;;;;;;20.85;15.50;;;6.40;79.20;;;;;;5039914;28;20226;-70
2022/04/05 02:19:14;;;;;;;17.27;13.65;;;6.40;79.10;;;;;;5043166;28;20227;-69
2022/04/05 02:21:44;;;;;;;20.58;15.23;;;6.40;79.60;;;;;;5041905;28;20211;-70
2022/04/05 02:24:11;;;;;;;17.73;13.65;;;6.40;79.60;;;;;;5051683;28;20664;-70
2022/04/05 02:26:41;;;;;;;19.50;14.48;;;6.40;79.20;;;;;;5037203;28;20326;-69
2022/04/05 02:29:10;;;;;;;19.70;14.15;;;6.40;79.60;;;;;;5053025;28;20230;-70
2022/04/05 02:31:42;;;;;;;17.50;13.27;;;6.40;79.30;;;;;;5040123;28;20643;-70
2022/04/05 02:34:11;;;;;;;17.30;13.07;;;6.40;79.80;;;;;;5035880;28;20232;-70
2022/04/05 02:36:44;;;;;;;19.33;14.75;;;6.40;79.70;;;;;;5050357;28;20213;-70
2022/04/05 02:39:16;;;;;;;18.92;14.30;;;6.30;80.10;;;;;;5055149;28;20227;-70
2022/04/05 02:41:48;;;;;;;17.95;13.68;;;6.30;80.10;;;;;;5040025;28;20215;-70
2022/04/05 02:44:19;;;;;;;17.02;12.75;;;6.30;80.00;;;;;;5039313;28;20204;-70
2022/04/05 02:46:49;;;;;;;19.88;15.80;;;6.30;79.80;;;;;;5041011;28;20224;-70
2022/04/05 02:49:17;;;;;;;18.77;14.23;;;6.30;80.30;;;;;;5049850;28;20287;-69
2022/04/05 02:51:48;;;;;;;19.45;14.25;;;6.20;81.20;;;;;;5049561;28;20192;-69
2022/04/05 02:54:23;;;;;;;18.67;14.38;;;6.20;80.90;;;;;;5039311;28;20235;-70
2022/04/05 02:56:56;;;;;;;16.05;13.65;;;6.30;80.40;;;;;;5032980;28;20236;-69
2022/04/05 02:59:25;;;;;;;18.35;13.80;;;6.20;80.80;;;;;;5052979;28;20636;-69
2022/04/05 03:01:54;;;;;;;18.67;13.75;;;6.30;80.20;;;;;;5056741;28;20629;-70
2022/04/05 03:04:22;;;;;;;19.45;14.30;;;6.30;80.40;;;;;;5035484;28;20198;-68
2022/04/05 03:06:52;;;;;;;16.60;13.02;;;6.20;81.30;;;;;;5053775;28;20712;-70
2022/04/05 03:09:22;;;;;;;19.90;14.95;;;6.30;80.60;;;;;;5053492;28;20231;-68
2022/04/05 03:11:51;;;;;;;20.58;14.45;;;6.20;81.30;;;;;;5035461;28;20296;-70
2022/04/05 03:14:21;;;;;;;16.35;13.93;;;6.20;81.30;;;;;;5043919;28;20228;-69
2022/04/05 03:16:50;;;;;;;18.30;13.30;;;6.20;81.60;;;;;;5039733;28;20227;-70
2022/04/05 03:19:20;;;;;;;18.15;13.55;;;6.30;80.80;;;;;;5043477;28;20591;-69
2022/04/05 03:21:51;;;;;;;16.83;12.73;;;6.30;81.50;;;;;;5041034;28;20213;-69
2022/04/05 03:24:20;;;;;;;22.40;13.85;;;6.30;81.40;;;;;;5041349;28;20214;-69
2022/04/05 03:26:48;;;;;;;16.88;13.45;;;6.20;81.30;;;;;;5043897;28;20245;-69
2022/04/05 03:29:23;;;;;;;17.00;12.20;;;6.20;81.20;;;;;;5060728;28;20255;-69
2022/04/05 03:31:51;;;;;;;18.35;13.10;;;6.30;80.90;;;;;;5043766;28;20236;-69
2022/04/05 03:34:20;;;;;;;16.95;12.75;;;6.30;81.40;;;;;;5043825;28;20238;-69
2022/04/05 03:36:48;;;;;;;17.35;13.27;;;6.30;81.50;;;;;;5057042;28;20671;-68
2022/04/05 03:39:16;;;;;;;17.35;12.02;;;6.30;81.20;;;;;;5037135;28;20279;-69
2022/04/05 03:41:45;;;;;;;15.43;11.63;;;6.30;81.60;;;;;;5039468;28;20289;-70
2022/04/05 03:44:13;;;;;;;16.95;12.80;;;6.30;81.50;;;;;;5040031;28;20563;-69
2022/04/05 03:46:46;;;;;;;18.60;12.55;;;6.30;81.80;;;;;;5037427;28;20259;-70
2022/04/05 03:49:15;;;;;;;20.48;11.68;;;6.30;81.70;;;;;;5043707;28;20219;-70
2022/04/05 03:51:47;;;;;;;17.83;11.27;;;6.20;82.30;;;;;;5035271;28;20231;-70
2022/04/05 03:54:16;;;;;;;17.58;11.10;;;6.30;81.50;;;;;;5038124;28;20197;-70
2022/04/05 03:56:45;;;;;;;14.77;11.38;;;6.40;81.60;;;;;;5035445;28;20226;-67
2022/04/05 03:59:14;;;;;;;17.70;12.40;;;6.40;81.10;;;;;;5036767;28;20251;-70
2022/04/05 04:01:42;;;;;;;14.73;11.50;;;6.40;81.60;;;;;;5041952;28;20241;-70
2022/04/05 04:04:13;;;;;;;18.30;11.82;;;6.30;82.60;;;;;;5036292;28;20298;-70
2022/04/05 04:06:41;;;;;;;15.65;11.43;;;6.30;81.80;;;;;;5036428;28;20278;-68
2022/04/05 04:09:11;;;;;;;15.65;11.43;;;6.30;82.00;;;;;;5045131;28;20274;-68
2022/04/05 04:11:40;;;;;;;13.52;10.50;;;6.40;81.90;;;;;;5050208;28;20250;-70
2022/04/05 04:14:10;;;;;;;13.23;10.45;;;6.40;81.80;;;;;;5035736;28;20908;-69
2022/04/05 04:16:38;;;;;;;16.08;11.48;;;6.40;82.40;;;;;;5054126;28;20234;-69
2022/04/05 04:19:06;;;;;;;14.40;10.65;;;6.40;81.90;;;;;;5057435;28;20220;-70
2022/04/05 04:21:37;;;;;;;14.18;10.38;;;6.40;81.70;;;;;;5049012;28;20252;-69
2022/04/05 04:24:07;;;;;;;15.60;11.10;;;6.40;81.90;;;;;;5057041;28;20292;-69
2022/04/05 04:26:36;;;;;;;12.77;10.35;;;6.40;81.80;;;;;;5046304;28;20204;-70
2022/04/05 04:29:04;;;;;;;15.65;10.73;;;6.40;82.40;;;;;;5058764;28;20216;-70
2022/04/05 04:31:32;;;;;;;12.40;10.07;;;6.50;81.80;;;;;;5039458;28;20227;-70
2022/04/05 04:34:01;;;;;;;13.35;10.27;;;6.50;81.80;;;;;;5056615;28;20207;-68
2022/04/05 04:36:29;;;;;;;13.50;9.88;;;6.50;81.90;;;;;;5056810;28;20280;-68
2022/04/05 04:38:59;;;;;;;13.30;9.63;;;6.50;81.80;;;;;;5058105;28;20228;-70
2022/04/05 04:41:27;;;;;;;13.02;9.88;;;6.50;82.40;;;;;;5058493;28;20236;-70
2022/04/05 04:43:55;;;;;;;14.82;10.20;;;6.50;82.10;;;;;;5058161;28;20199;-69
2022/04/05 04:46:25;;;;;;;12.00;9.40;;;6.50;82.00;;;;;;5043158;28;20232;-69
2022/04/05 04:48:53;;;;;;;11.98;9.20;;;6.50;82.00;;;;;;5044012;28;20232;-69
2022/04/05 04:51:21;;;;;;;16.25;10.48;;;6.50;82.10;;;;;;5058825;28;20200;-69
2022/04/05 04:53:49;;;;;;;14.60;10.45;;;6.50;82.60;;;;;;5059563;28;20215;-69
2022/04/05 04:56:18;;;;;;;13.38;10.20;;;6.50;82.30;;;;;;5063033;28;20215;-69
2022/04/05 04:58:46;;;;;;;12.57;9.30;;;6.50;82.20;;;;;;5061985;28;20221;-69
2022/04/05 05:01:14;;;;;;;13.07;9.20;;;6.50;82.10;;;;;;5060464;28;20224;-69
2022/04/05 05:03:42;;;;;;;13.27;9.70;;;6.50;82.00;;;;;;5060785;28;20299;-70
2022/04/05 05:06:11;;;;;;;13.07;9.13;;;6.60;82.10;;;;;;5059500;28;20196;-70
2022/04/05 05:08:39;;;;;;;13.93;9.35;;;6.60;82.00;;;;;;5058065;28;20227;-69
2022/04/05 05:11:06;;;;;;;11.55;9.68;;;6.60;81.90;;;;;;5055388;28;20204;-70
2022/04/05 05:13:36;;;;;;;14.70;10.20;;;6.60;82.40;;;;;;5055302;28;20188;-69
2022/04/05 05:16:05;;;;;;;14.40;10.05;;;6.60;82.50;;;;;;5057768;28;20238;-69
2022/04/05 05:18:33;;;;;;;15.80;9.43;;;6.60;82.10;;;;;;5059213;28;20229;-69
2022/04/05 05:21:01;;;;;;;13.38;10.40;;;6.70;82.00;;;;;;5056499;28;20766;-69
2022/04/05 05:23:28;;;;;;;14.77;9.77;;;6.70;82.00;;;;;;5060178;28;20817;-70
2022/04/05 05:25:56;;;;;;;12.82;9.57;;;6.60;82.40;;;;;;5053335;28;20196;-68
2022/04/05 05:28:24;;;;;;;11.80;9.30;;;6.60;82.30;;;;;;5055655;28;20298;-71
2022/04/05 05:30:53;;;;;;;15.77;10.65;;;6.60;82.40;;;;;;5054439;28;20221;-70
2022/04/05 05:33:22;;;;;;;12.83;9.90;;;6.60;82.40;;;;;;5053105;28;20201;-68
2022/04/05 05:35:50;;;;;;;13.02;9.25;;;6.60;82.30;;;;;;5052002;28;20885;-70
2022/04/05 05:38:18;;;;;;;11.25;9.10;;;6.60;82.80;;;;;;5059935;28;20633;-70
2022/04/05 05:40:46;;;;;;;11.90;8.55;;;6.60;82.50;;;;;;5057605;28;20216;-68
2022/04/05 05:43:14;;;;;;;14.90;8.90;;;6.60;82.20;;;;;;5055768;28;20196;-70
2022/04/05 05:45:42;;;;;;;13.23;9.10;;;6.70;82.50;;;;;;5052647;28;20228;-70
2022/04/05 05:48:12;;;;;;;13.23;9.20;;;6.70;82.50;;;;;;5058380;28;20587;-70
2022/04/05 05:50:40;;;;;;;13.07;9.00;;;6.70;82.70;;;;;;5054292;28;20238;-70
2022/04/05 05:53:08;;;;;;;12.73;9.70;;;6.70;82.40;;;;;;5051003;28;20196;-70
2022/04/05 05:55:37;;;;;;;12.27;9.45;;;6.70;82.80;;;;;;5053337;28;20196;-70
2022/04/05 05:58:05;;;;;;;12.02;8.73;;;6.70;82.50;;;;;;5054485;28;20250;-70
2022/04/05 06:00:33;;;;;;;14.00;9.93;;;6.70;82.70;;;;;;5057518;28;20714;-69
2022/04/05 06:03:03;;;;;;;13.90;9.23;;;6.70;82.90;;;;;;5057173;28;20208;-71
2022/04/05 06:05:33;;;;;;;11.18;8.35;;;6.60;83.20;;;;;;5044519;28;20204;-69
2022/04/05 06:08:01;;;;;;;12.63;8.48;;;6.70;82.70;;;;;;5058279;28;20776;-70
2022/04/05 06:10:29;;;;;;;12.18;8.85;;;6.80;82.70;;;;;;5058135;28;20223;-71
2022/04/05 06:12:57;;;;;;;11.02;8.52;;;6.80;82.80;;;;;;5057353;28;20614;-69
2022/04/05 06:15:26;;;;;;;11.02;8.10;;;6.70;82.70;;;;;;5061592;28;20390;-69
2022/04/05 06:17:54;;;;;;;12.32;9.07;;;6.70;82.70;;;;;;5055612;28;20232;-69
2022/04/05 06:20:24;;;;;;;12.63;9.40;;;6.80;82.60;;;;;;5062134;28;20204;-70
2022/04/05 06:22:55;;;;;;;14.10;8.90;;;6.80;82.40;;;;;;5058697;28;20215;-70
2022/04/05 06:25:24;;;;;;;13.90;10.02;;;6.80;83.00;;;;;;5055000;28;20196;-69
2022/04/05 06:27:52;;;;;;;62.80;39.50;;;6.80;82.80;;;;;;5054426;28;20228;-69
2022/04/05 06:30:20;;;;;;;23.60;16.73;;;6.80;82.60;;;;;;5054228;28;20212;-69
2022/04/05 06:32:48;;;;;;;14.55;10.60;;;6.80;83.10;;;;;;5036815;28;20196;-69
2022/04/05 06:35:17;;;;;;;11.57;8.85;;;6.80;83.40;;;;;;5051443;28;20203;-69
2022/04/05 06:37:46;;;;;;;10.00;8.65;;;6.80;83.30;;;;;;5053571;28;20255;-69
2022/04/05 06:40:16;;;;;;;13.60;9.90;;;6.80;83.10;;;;;;5058804;28;20206;-69
2022/04/05 06:42:44;;;;;;;13.55;9.50;;;6.80;83.10;;;;;;5062821;28;20246;-69
2022/04/05 06:45:15;;;;;;;13.48;10.00;;;6.80;83.20;;;;;;5063414;28;20215;-69
2022/04/05 06:47:43;;;;;;;13.30;9.13;;;6.80;82.90;;;;;;5060957;28;20572;-69
2022/04/05 06:50:14;;;;;;;13.75;9.60;;;6.80;83.10;;;;;;5062831;28;20219;-71
2022/04/05 06:52:43;;;;;;;15.02;9.25;;;6.80;83.10;;;;;;5064143;28;20301;-70
2022/04/05 06:55:12;;;;;;;13.20;10.48;;;6.80;83.60;;;;;;5060378;28;20216;-71
2022/04/05 06:57:41;;;;;;;12.30;9.18;;;6.80;83.40;;;;;;5056802;28;20208;-70
2022/04/05 07:00:12;;;;;;;12.50;9.65;;;6.80;83.10;;;;;;5056630;28;20677;-70
2022/04/05 07:02:41;;;;;;;10.93;8.50;;;6.80;83.50;;;;;;5057412;28;20236;-71
2022/04/05 07:05:10;;;;;;;10.68;8.30;;;6.80;83.70;;;;;;5058000;28;20203;-69
2022/04/05 07:07:38;;;;;;;12.13;9.50;;;6.80;83.70;;;;;;5053682;28;20196;-70
2022/04/05 07:10:09;;;;;;;13.38;10.02;;;6.90;83.40;;;;;;5057185;28;20200;-70
2022/04/05 07:12:37;;;;;;;12.23;9.45;;;6.80;83.90;;;;;;5056692;28;20196;-70
2022/04/05 07:15:10;;;;;;;12.63;9.70;;;6.80;83.60;;;;;;5057209;28;20250;-70
2022/04/05 07:17:38;;;;;;;11.35;8.10;;;6.90;83.80;;;;;;5057486;28;20234;-70
2022/04/05 07:20:26;;;;;;;12.10;8.43;;;6.90;83.80;;;;;;5059394;28;20767;-69
2022/04/05 07:22:54;;;;;;;12.52;8.68;;;6.90;83.90;;;;;;5059434;28;20327;-69
2022/04/05 07:25:24;;;;;;;12.90;8.77;;;6.90;83.70;;;;;;5060684;28;20279;-71
2022/04/05 07:27:52;;;;;;;12.10;9.45;;;6.90;83.80;;;;;;5056139;28;20910;-70
2022/04/05 07:30:23;;;;;;;11.00;8.93;;;6.90;83.70;;;;;;5054805;28;20215;-71
2022/04/05 07:32:51;;;;;;;12.32;9.15;;;7.00;83.70;;;;;;5037836;28;20910;-69
2022/04/05 07:35:19;;;;;;;11.93;8.50;;;7.00;84.00;;;;;;5053689;28;20665;-70
2022/04/05 07:37:47;;;;;;;11.52;8.35;;;7.00;83.90;;;;;;5053082;28;20239;-70
2022/04/05 07:40:16;;;;;;;10.15;7.80;;;7.00;84.10;;;;;;5055895;28;20200;-70
2022/04/05 07:42:45;;;;;;;11.15;8.27;;;7.00;84.10;;;;;;5052121;28;20230;-70
2022/04/05 07:45:16;;;;;;;11.13;8.40;;;7.00;84.20;;;;;;5056218;28;20234;-71
2022/04/05 07:47:46;;;;;;;15.05;8.80;;;7.00;84.20;;;;;;5056124;28;20733;-71
2022/04/05 07:50:14;;;;;;;44.40;32.10;;;7.10;84.20;;;;;;5055809;28;20200;-71
2022/04/05 07:52:44;;;;;;;76.13;42.33;;;7.10;84.30;;;;;;5057544;28;20208;-71
2022/04/05 07:55:13;;;;;;;11.60;7.80;;;7.10;84.00;;;;;;5056234;28;20249;-69
2022/04/05 07:57:41;;;;;;;10.10;7.00;;;7.10;84.40;;;;;;5055019;28;20257;-70
2022/04/05 08:00:10;;;;;;;9.30;6.63;;;7.20;84.30;;;;;;5054926;28;20196;-70
2022/04/05 08:02:41;;;;;;;10.90;7.32;;;7.20;84.30;;;;;;5052127;28;20259;-69
2022/04/05 08:05:16;;;;;;;10.20;6.95;;;7.20;84.40;;;;;;5050850;28;20201;-71
2022/04/05 08:07:46;;;;;;;8.30;6.05;;;7.20;84.00;;;;;;5051431;28;20238;-70
2022/04/05 08:10:15;;;;;;;9.57;5.90;;;7.30;84.10;;;;;;5057339;28;20547;-71
2022/04/05 08:12:45;;;;;;;9.13;6.18;;;7.30;84.10;;;;;;5059698;28;20211;-69
2022/04/05 08:15:14;;;;;;;7.22;5.00;;;7.30;84.20;;;;;;5054184;28;20199;-71
2022/04/05 08:17:42;;;;;;;7.32;5.30;;;7.30;84.10;;;;;;5057293;28;20237;-69
2022/04/05 08:20:11;;;;;;;6.38;4.88;;;7.30;83.90;;;;;;5055337;28;20211;-69
2022/04/05 08:22:42;;;;;;;7.90;5.82;;;7.30;83.90;;;;;;5059076;28;20212;-71
2022/04/05 08:25:14;;;;;;;7.28;5.30;;;7.40;83.80;;;;;;5057892;28;20913;-69
2022/04/05 08:27:42;;;;;;;6.00;4.50;;;7.40;84.10;;;;;;5057389;28;20770;-69
2022/04/05 08:30:15;;;;;;;7.60;5.40;;;7.40;83.90;;;;;;5058378;28;20208;-69
2022/04/05 08:32:44;;;;;;;6.32;4.53;;;7.40;84.20;;;;;;5054337;28;20540;-70
2022/04/05 08:35:14;;;;;;;7.03;4.50;;;7.40;83.90;;;;;;5053024;28;20208;-70
2022/04/05 08:37:44;;;;;;;8.38;5.40;;;7.40;83.90;;;;;;5055475;28;20287;-70
2022/04/05 08:40:13;;;;;;;7.63;5.10;;;7.40;83.90;;;;;;5053588;28;20569;-70
2022/04/05 08:42:43;;;;;;;7.40;5.32;;;7.50;83.90;;;;;;5051658;28;20221;-70
2022/04/05 08:45:13;;;;;;;6.05;4.45;;;7.50;84.00;;;;;;5051432;28;20672;-70
2022/04/05 08:47:46;;;;;;;6.82;4.57;;;7.50;83.90;;;;;;5055108;28;20208;-70
2022/04/05 08:50:15;;;;;;;7.18;4.68;;;7.50;84.30;;;;;;5050568;28;20208;-71
2022/04/05 08:52:45;;;;;;;5.95;3.85;;;7.60;84.30;;;;;;5030264;28;20204;-70
2022/04/05 08:55:14;;;;;;;6.75;4.53;;;7.60;84.20;;;;;;5054342;28;20204;-71
2022/04/05 08:57:42;;;;;;;7.68;4.25;;;7.60;84.20;;;;;;5058400;28;20221;-72
2022/04/05 09:00:12;;;;;;;5.67;3.63;;;7.70;84.20;;;;;;5055562;28;20200;-70
2022/04/05 09:02:51;;;;;;;52.80;33.58;;;7.70;84.40;;;;;;5061191;28;20477;-71
2022/04/05 09:05:30;;;;;;;10.70;6.67;;;7.70;84.40;;;;;;5060992;28;20205;-71
2022/04/05 09:08:16;;;;;;;6.55;4.35;;;7.70;84.40;;;;;;5055401;28;21270;-70
2022/04/05 09:10:46;;;;;;;7.43;3.85;;;7.80;84.40;;;;;;5056238;28;20206;-70
2022/04/05 09:13:23;;;;;;;6.05;4.10;;;7.80;84.10;;;;;;5060480;28;20192;-70
2022/04/05 09:15:56;;;;;;;6.18;4.40;;;7.80;84.20;;;;;;5057127;28;20239;-70
2022/04/05 09:18:29;;;;;;;5.30;3.80;;;7.80;84.20;;;;;;5055471;28;20349;-70
2022/04/05 09:20:57;;;;;;;6.40;3.70;;;7.90;84.20;;;;;;5055642;28;20196;-70
2022/04/05 09:23:28;;;;;;;5.67;4.20;;;7.90;84.10;;;;;;5054308;28;20470;-70
2022/04/05 09:26:01;;;;;;;6.40;4.60;;;7.80;84.20;;;;;;5037872;28;20462;-70
2022/04/05 09:28:31;;;;;;;6.27;4.17;;;7.80;84.20;;;;;;5056834;28;20238;-70
2022/04/05 09:31:01;;;;;;;5.13;3.93;;;7.80;84.40;;;;;;5058380;28;20481;-70
2022/04/05 09:33:31;;;;;;;6.22;4.35;;;7.90;84.10;;;;;;5056774;28;20534;-71
2022/04/05 09:36:08;;;;;;;6.10;3.72;;;7.90;84.20;;;;;;5059116;28;20203;-71
2022/04/05 09:38:38;;;;;;;6.40;3.77;;;7.90;84.10;;;;;;5060401;28;20272;-71
2022/04/05 09:41:25;;;;;;;5.77;3.97;;;7.90;84.10;;;;;;5056370;28;20454;-71
2022/04/05 09:43:56;;;;;;;5.78;4.18;;;7.90;84.10;;;;;;5055879;28;20481;-69
2022/04/05 09:46:24;;;;;;;6.20;4.00;;;7.90;84.10;;;;;;5040069;28;20240;-69
2022/04/05 09:49:04;;;;;;;6.90;4.40;;;7.90;84.20;;;;;;5058455;28;21272;-71
2022/04/05 09:51:42;;;;;;;5.77;4.40;;;7.90;84.30;;;;;;5057617;28;20449;-69
2022/04/05 09:54:22;;;;;;;6.10;4.30;;;7.90;84.50;;;;;;5059657;28;20446;-70
2022/04/05 09:56:50;;;;;;;6.07;4.00;;;7.90;84.40;;;;;;5057934;28;20446;-69
2022/04/05 09:59:21;;;;;;;6.03;4.30;;;7.90;84.50;;;;;;5060453;28;20481;-69
2022/04/05 10:01:52;;;;;;;7.40;4.90;;;7.90;84.50;;;;;;5058302;28;20858;-69
2022/04/05 10:04:20;;;;;;;5.70;4.10;;;7.90;84.60;;;;;;5062815;28;20497;-71
2022/04/05 10:06:48;;;;;;;6.30;4.38;;;7.90;84.60;;;;;;5065166;28;20447;-68
2022/04/05 10:09:21;;;;;;;6.50;4.53;;;8.00;84.50;;;;;;5056543;28;20222;-69
2022/04/05 10:11:50;;;;;;;5.90;4.63;;;8.10;84.40;;;;;;5050855;28;20451;-69
2022/04/05 10:14:20;;;;;;;6.40;4.80;;;8.10;84.40;;;;;;5055620;28;20439;-70
2022/04/05 10:16:50;;;;;;;6.88;4.47;;;8.10;84.50;;;;;;5054668;28;21050;-70
2022/04/05 10:19:20;;;;;;;7.13;4.60;;;8.10;84.80;;;;;;5059062;28;20225;-70
2022/04/05 10:21:49;;;;;;;5.63;4.03;;;8.20;84.40;;;;;;5055329;28;20486;-71
2022/04/05 10:24:21;;;;;;;5.97;4.00;;;8.20;84.20;;;;;;5055674;28;20485;-70
2022/04/05 10:26:49;;;;;;;9.30;5.07;;;8.20;84.20;;;;;;5056665;28;20486;-70
2022/04/05 10:29:19;;;;;;;6.50;4.30;;;8.20;84.20;;;;;;5054861;28;20502;-70
2022/04/05 10:32:05;;;;;;;6.17;4.20;;;8.20;84.20;;;;;;5053604;28;20497;-70
2022/04/05 10:34:41;;;;;;;7.33;5.40;;;8.20;84.30;;;;;;5038840;28;21040;-70
2022/04/05 10:37:16;;;;;;;6.30;4.50;;;8.30;84.20;;;;;;5060338;28;20462;-71
2022/04/05 10:40:15;;;;;;;5.70;4.10;;;8.30;84.40;;;;;;5059052;28;20512;-70
2022/04/05 10:42:46;;;;;;;6.00;4.13;;;8.30;84.30;;;;;;5055434;28;20466;-70
2022/04/05 10:45:16;;;;;;;5.33;3.63;;;8.40;84.20;;;;;;5054352;28;20477;-70
2022/04/05 10:48:12;;;;;;;6.40;4.80;;;8.40;84.30;;;;;;5055186;28;20892;-70
2022/04/05 10:51:30;;;;;;;6.80;4.53;;;8.40;84.20;;;;;;5057676;28;20457;-70
2022/04/05 10:54:19;;;;;;;5.60;4.17;;;8.40;84.30;;;;;;5057150;28;20457;-70
2022/04/05 10:57:21;;;;;;;6.73;4.23;;;8.40;84.20;;;;;;5058111;28;20446;-70
2022/04/05 10:59:51;;;;;;;6.00;4.40;;;8.50;84.10;;;;;;5038897;28;20450;-70
2022/04/05 11:02:43;;;;;;;8.93;4.53;;;8.50;84.10;;;;;;5057954;28;20898;-70
2022/04/05 11:05:39;;;;;;;6.60;4.43;;;8.50;84.10;;;;;;5056383;28;20831;-70
2022/04/05 11:08:12;;;;;;;7.50;4.80;;;8.50;84.20;;;;;;5055499;28;21007;-70
2022/04/05 11:11:01;;;;;;;6.00;4.27;;;8.60;84.10;;;;;;5055249;28;20493;-69
2022/04/05 11:13:42;;;;;;;48.23;27.83;;;8.60;84.10;;;;;;5052817;28;20541;-69
2022/04/05 11:16:12;;;;;;;40.80;24.50;;;8.60;84.10;;;;;;5053903;28;20524;-69
2022/04/05 11:18:44;;;;;;;10.23;6.53;;;8.70;84.10;;;;;;5057111;28;20482;-69
2022/04/05 11:21:12;;;;;;;6.40;5.10;;;8.70;84.10;;;;;;5055503;28;20488;-69
2022/04/05 11:23:49;;;;;;;7.23;5.03;;;8.80;84.10;;;;;;5036146;28;20492;-71
2022/04/05 11:26:35;;;;;;;6.33;4.53;;;8.80;84.10;;;;;;5055014;28;20460;-69
2022/04/05 11:29:26;;;;;;;6.90;5.60;;;8.80;84.00;;;;;;5054971;28;20528;-69
2022/04/05 11:32:25;;;;;;;6.97;5.20;;;8.80;83.80;;;;;;5043841;28;20478;-70
2022/04/05 11:35:03;;;;;;;7.43;5.30;;;8.80;83.60;;;;;;5058043;28;20966;-70
2022/04/05 11:37:40;;;;;;;8.57;6.30;;;8.80;83.60;;;;;;5059142;28;20499;-70
2022/04/05 11:40:24;;;;;;;7.93;5.47;;;8.80;83.70;;;;;;5059125;28;20454;-69
2022/04/05 11:43:21;;;;;;;7.37;5.40;;;8.80;83.70;;;;;;5039646;28;20818;-70
2022/04/05 11:46:10;;;;;;;;;;;;;;;;;;;;;
2022/04/05 11:48:56;;;;;;;8.10;6.30;;;8.80;83.70;;;;;;5055808;28;20482;-71
2022/04/05 11:51:36;;;;;;;10.40;6.57;;;8.80;83.70;;;;;;5056079;28;21059;-70
2022/04/05 11:54:26;;;;;;;8.30;6.57;;;8.90;83.80;;;;;;5054225;28;20469;-70
2022/04/05 11:57:14;;;;;;;9.67;6.53;;;8.90;83.90;;;;;;5052945;28;20463;-70
2022/04/05 11:59:54;;;;;;;9.37;7.70;;;8.90;83.80;;;;;;5057253;28;20521;-70
2022/04/05 12:02:34;;;;;;;9.17;7.00;;;8.90;83.80;;;;;;5052175;28;21288;-70
2022/04/05 12:08:27;;;;;;;8.90;6.97;;;9.00;83.80;;;;;;5056175;28;20581;-71
2022/04/05 12:11:18;;;;;;;9.50;7.00;;;9.10;83.70;;;;;;5054747;28;20454;-70
2022/04/05 12:13:58;;;;;;;8.80;6.63;;;9.10;83.60;;;;;;5038140;28;20504;-70
2022/04/05 12:16:48;;;;;;;9.70;7.30;;;9.10;83.60;;;;;;5058923;28;20990;-71
2022/04/05 12:19:24;;;;;;;14.93;11.73;;;9.20;83.80;;;;;;5052232;28;21091;-70
2022/04/05 12:22:02;;;;;;;13.23;8.07;;;9.20;83.80;;;;;;5056749;28;20541;-71
2022/04/05 12:24:50;;;;;;;11.90;7.70;;;9.30;83.70;;;;;;5055562;28;20495;-70
2022/04/05 12:27:27;;;;;;;9.10;7.67;;;9.30;83.70;;;;;;5056138;28;21192;-70
2022/04/05 12:30:09;;;;;;;10.03;8.07;;;9.30;83.60;;;;;;5054949;28;20479;-71
2022/04/05 12:32:51;;;;;;;9.70;7.50;;;9.30;83.70;;;;;;5056719;28;20586;-71
2022/04/05 12:38:19;;;;;;;12.53;8.20;;;9.30;83.70;;;;;;5072545;27;1524955;-69
2022/04/05 12:41:00;;;;;;;12.63;9.30;;;9.40;83.80;;;;;;5090511;28;20241;-71
2022/04/05 12:43:36;;;;;;;9.70;7.67;;;9.40;83.80;;;;;;5089487;28;20457;-71
2022/04/05 12:46:29;;;;;;;14.80;9.10;;;9.50;83.70;;;;;;5060936;28;20487;-69
2022/04/05 12:49:34;;;;;;;11.77;8.40;;;9.60;83.60;;;;;;5014917;28;20472;-70
2022/04/05 12:52:17;;;;;;;11.40;9.07;;;9.60;83.40;;;;;;4964661;28;20567;-71
2022/04/05 12:55:05;;;;;;;13.37;8.50;;;9.60;83.40;;;;;;5013456;28;20452;-69
2022/04/05 12:57:59;;;;;;;11.63;8.70;;;9.60;83.40;;;;;;5015661;28;20598;-69
2022/04/05 13:00:43;;;;;;;13.00;8.97;;;9.60;83.20;;;;;;5006451;28;20491;-69
2022/04/05 13:03:48;;;;;;;15.20;9.27;;;9.60;83.10;;;;;;5015692;28;20510;-70
2022/04/05 13:06:35;;;;;;;10.10;8.33;;;9.60;83.10;;;;;;5021528;28;20514;-69
2022/04/05 13:09:14;;;;;;;11.87;9.60;;;9.60;83.20;;;;;;5015777;28;20484;-69
2022/04/05 13:11:51;;;;;;;12.30;8.50;;;9.60;83.00;;;;;;5010116;28;20942;-71
2022/04/05 13:14:45;;;;;;;12.40;9.27;;;9.60;83.10;;;;;;5019457;28;20536;-71
2022/04/05 13:17:35;;;;;;;15.47;10.13;;;9.50;83.30;;;;;;5014427;28;20491;-71
2022/04/05 13:20:09;;;;;;;11.50;9.57;;;9.60;83.30;;;;;;5015292;28;20475;-69